createdAt,value
2023-03-19T00:00:33.171Z,92.20
2023-03-19T00:01:30.081Z,92.93
2023-03-19T00:02:33.184Z,93.13
2023-03-19T00:03:30.033Z,93.93
2023-03-19T00:04:27.785Z,94.33
2023-03-19T00:05:24.536Z,94.23
2023-03-19T00:06:28.069Z,95.42
2023-03-19T00:07:31.151Z,96.01
2023-03-19T00:08:28.110Z,97.21
2023-03-19T00:09:24.973Z,96.91
2023-03-19T00:10:21.828Z,96.99
2023-03-19T00:11:18.791Z,96.50
2023-03-19T00:12:16.265Z,97.14
2023-03-19T00:13:19.170Z,96.90
2023-03-19T00:14:24.177Z,96.89
2023-03-19T00:15:20.970Z,96.28
2023-03-19T00:16:24.153Z,96.34
2023-03-19T00:17:21.046Z,96.14
2023-03-19T00:18:18.041Z,95.12
2023-03-19T00:19:15.811Z,93.05
2023-03-19T00:20:21.147Z,90.26
2023-03-19T00:21:18.040Z,89.01
2023-03-19T00:22:21.101Z,88.51
2023-03-19T00:23:18.030Z,89.78
2023-03-19T00:24:16.256Z,91.58
2023-03-19T00:25:19.312Z,93.33
2023-03-19T00:26:29.219Z,94.01
2023-03-19T00:27:26.311Z,94.26
2023-03-19T00:28:29.173Z,94.52
2023-03-19T00:29:26.184Z,95.37
2023-03-19T00:30:24.323Z,96.24
2023-03-19T00:31:21.544Z,96.30
2023-03-19T00:32:25.230Z,95.47
2023-03-19T00:33:21.993Z,96.18
2023-03-19T00:34:19.269Z,97.89
2023-03-19T00:35:16.315Z,96.49
2023-03-19T00:36:20.173Z,96.61
2023-03-19T00:37:17.509Z,94.37
2023-03-19T00:38:14.803Z,93.87
2023-03-19T00:39:11.646Z,94.83
2023-03-19T00:40:17.179Z,95.60
2023-03-19T00:41:14.017Z,96.76
2023-03-19T00:42:17.164Z,96.98
2023-03-19T00:43:20.145Z,97.32
2023-03-19T00:44:19.091Z,95.46
2023-03-19T00:45:16.569Z,94.00
2023-03-19T00:46:14.708Z,91.96
2023-03-19T00:47:19.154Z,89.81
2023-03-19T00:48:15.990Z,86.74
2023-03-19T00:49:13.314Z,85.55
2023-03-19T00:50:17.249Z,84.45
2023-03-19T00:51:14.241Z,85.94
2023-03-19T00:52:11.154Z,87.69
2023-03-19T00:53:07.954Z,89.57
2023-03-19T00:54:04.871Z,91.06
2023-03-19T00:55:08.224Z,91.88
2023-03-19T00:56:06.608Z,92.74
2023-03-19T00:57:03.384Z,93.08
2023-03-19T00:58:07.203Z,93.61
2023-03-19T00:59:10.207Z,93.03
2023-03-19T01:00:08.751Z,93.57
2023-03-19T01:01:06.597Z,94.95
2023-03-19T01:02:11.171Z,95.87
2023-03-19T01:03:07.964Z,95.88
2023-03-19T01:04:04.937Z,97.87
2023-03-19T01:05:01.810Z,97.68
2023-03-19T01:05:59.370Z,97.08
2023-03-19T01:07:03.218Z,97.07
2023-03-19T01:08:07.120Z,97.45
2023-03-19T01:09:03.986Z,97.57
2023-03-19T01:10:00.964Z,98.11
2023-03-19T01:11:05.726Z,98.38
2023-03-19T01:12:11.226Z,96.73
2023-03-19T01:13:08.211Z,93.23
2023-03-19T01:14:05.061Z,92.70
2023-03-19T01:15:09.171Z,93.23
2023-03-19T01:16:13.130Z,93.18
2023-03-19T01:17:09.975Z,94.58
2023-03-19T01:18:15.266Z,96.41
2023-03-19T01:19:12.811Z,96.69
2023-03-19T01:20:13.973Z,96.91
2023-03-19T01:21:17.186Z,95.87
2023-03-19T01:22:16.198Z,92.88
2023-03-19T01:23:12.993Z,92.09
2023-03-19T01:24:17.258Z,93.13
2023-03-19T01:25:14.656Z,95.04
2023-03-19T01:26:25.209Z,95.85
2023-03-19T01:27:28.641Z,97.00
2023-03-19T01:28:25.509Z,98.21
2023-03-19T01:29:29.202Z,98.46
2023-03-19T01:30:32.462Z,97.83
2023-03-19T01:31:29.533Z,96.81
2023-03-19T01:32:26.717Z,97.08
2023-03-19T01:33:25.603Z,96.84
2023-03-19T01:34:23.154Z,97.38
2023-03-19T01:35:27.207Z,97.52
2023-03-19T01:36:24.754Z,96.18
2023-03-19T01:37:21.676Z,94.79
2023-03-19T01:38:18.699Z,94.29
2023-03-19T01:39:15.544Z,93.38
2023-03-19T01:40:21.257Z,93.53
2023-03-19T01:41:18.443Z,95.04
2023-03-19T01:42:15.762Z,96.86
2023-03-19T01:43:15.153Z,98.14
2023-03-19T01:44:40.311Z,99.44
2023-03-19T01:45:40.193Z,98.88
2023-03-19T01:46:39.592Z,100.00
2023-03-19T01:47:41.603Z,100.00
2023-03-19T01:48:46.119Z,100.00
2023-03-19T01:49:53.290Z,100.00
2023-03-19T01:50:53.903Z,100.00
2023-03-19T01:51:53.830Z,100.00
2023-03-19T01:53:18.325Z,100.00
2023-03-19T01:54:22.792Z,99.30
2023-03-19T01:55:26.294Z,98.29
2023-03-19T01:56:30.662Z,95.97
2023-03-19T01:57:29.983Z,95.59
2023-03-19T01:58:27.857Z,95.32
2023-03-19T01:59:33.475Z,96.77
2023-03-19T02:00:37.210Z,96.43
2023-03-19T02:01:40.588Z,97.86
2023-03-19T02:02:40.654Z,99.78
2023-03-19T02:03:38.832Z,98.88
2023-03-19T02:04:39.191Z,97.77
2023-03-19T02:05:46.322Z,97.16
2023-03-19T02:06:44.906Z,97.11
2023-03-19T02:07:46.143Z,98.81
2023-03-19T02:08:43.851Z,100.00
2023-03-19T02:09:42.185Z,100.00
2023-03-19T02:10:47.273Z,100.00
2023-03-19T02:11:45.530Z,100.00
2023-03-19T02:12:42.466Z,100.00
2023-03-19T02:13:39.477Z,100.00
2023-03-19T02:14:43.291Z,100.00
2023-03-19T02:15:40.615Z,100.00
2023-03-19T02:16:44.285Z,100.00
2023-03-19T02:17:42.671Z,100.00
2023-03-19T02:18:39.449Z,100.00
2023-03-19T02:19:49.580Z,100.00
2023-03-19T02:21:05.259Z,100.00
2023-03-19T02:22:11.288Z,100.00
2023-03-19T02:23:13.735Z,100.00
2023-03-19T02:24:23.095Z,100.00
2023-03-19T02:25:37.272Z,100.00
2023-03-19T02:26:50.276Z,100.00
2023-03-19T02:27:53.619Z,100.00
2023-03-19T02:28:52.529Z,100.00
2023-03-19T02:29:56.288Z,100.00
2023-03-19T02:30:53.287Z,100.00
2023-03-19T02:31:56.249Z,100.00
2023-03-19T02:33:00.349Z,100.00
2023-03-19T02:34:28.701Z,100.00
2023-03-19T02:35:30.382Z,100.00
2023-03-19T02:36:49.376Z,100.00
2023-03-19T02:37:47.124Z,100.00
2023-03-19T02:38:46.742Z,100.00
2023-03-19T02:40:13.719Z,100.00
2023-03-19T02:41:18.449Z,100.00
2023-03-19T02:42:17.360Z,100.00
2023-03-19T02:43:14.390Z,100.00
2023-03-19T02:44:19.319Z,100.00
2023-03-19T02:45:17.065Z,100.00
2023-03-19T02:46:20.320Z,100.00
2023-03-19T02:47:17.402Z,100.00
2023-03-19T02:48:14.376Z,100.00
2023-03-19T02:49:18.344Z,100.00
2023-03-19T02:50:15.395Z,100.00
2023-03-19T02:51:13.601Z,100.00
2023-03-19T02:52:10.748Z,100.00
2023-03-19T02:53:08.219Z,100.00
2023-03-19T02:54:05.997Z,100.00
2023-03-19T02:55:10.368Z,100.00
2023-03-19T02:56:07.505Z,100.00
2023-03-19T02:57:05.603Z,100.00
2023-03-19T02:58:02.702Z,100.00
2023-03-19T02:58:59.596Z,100.00
2023-03-19T03:00:03.347Z,100.00
2023-03-19T03:01:00.222Z,100.00
2023-03-19T03:01:57.385Z,100.00
2023-03-19T03:02:57.432Z,100.00
2023-03-19T03:04:00.411Z,100.00
2023-03-19T03:04:57.187Z,100.00
2023-03-19T03:05:53.966Z,100.00
2023-03-19T03:06:50.780Z,100.00
2023-03-19T03:07:47.831Z,100.00
2023-03-19T03:08:44.721Z,100.00
2023-03-19T03:09:48.354Z,100.00
2023-03-19T03:10:51.364Z,100.00
2023-03-19T03:11:48.534Z,100.00
2023-03-19T03:12:53.323Z,100.00
2023-03-19T03:13:50.180Z,100.00
2023-03-19T03:14:46.929Z,100.00
2023-03-19T03:15:50.354Z,100.00
2023-03-19T03:16:47.262Z,100.00
2023-03-19T03:17:45.949Z,100.00
2023-03-19T03:18:42.816Z,100.00
2023-03-19T03:19:39.630Z,100.00
2023-03-19T03:20:43.379Z,100.00
2023-03-19T03:21:41.258Z,100.00
2023-03-19T03:22:39.407Z,100.00
2023-03-19T03:23:36.771Z,100.00
2023-03-19T03:24:33.915Z,100.00
2023-03-19T03:25:51.460Z,100.00
2023-03-19T03:26:48.358Z,100.00
2023-03-19T03:27:45.241Z,100.00
2023-03-19T03:28:42.044Z,100.00
2023-03-19T03:29:38.858Z,100.00
2023-03-19T03:30:36.453Z,100.00
2023-03-19T03:31:43.461Z,100.00
2023-03-19T03:32:40.299Z,100.00
2023-03-19T03:33:37.608Z,100.00
2023-03-19T03:34:34.949Z,100.00
2023-03-19T03:35:38.446Z,100.00
2023-03-19T03:36:42.381Z,100.00
2023-03-19T03:37:39.850Z,100.00
2023-03-19T03:38:36.797Z,100.00
2023-03-19T03:39:33.945Z,100.00
2023-03-19T03:40:37.435Z,100.00
2023-03-19T03:41:40.424Z,100.00
2023-03-19T03:42:37.602Z,100.00
2023-03-19T03:43:34.974Z,100.00
2023-03-19T03:44:31.910Z,100.00
2023-03-19T03:45:28.753Z,100.00
2023-03-19T03:46:32.394Z,100.00
2023-03-19T03:47:29.218Z,100.00
2023-03-19T03:48:26.125Z,100.00
2023-03-19T03:49:23.218Z,100.00
2023-03-19T03:50:26.395Z,100.00
2023-03-19T03:51:23.314Z,100.00
2023-03-19T03:52:20.129Z,100.00
2023-03-19T03:53:17.082Z,100.00
2023-03-19T03:54:13.886Z,100.00
2023-03-19T03:55:10.740Z,100.00
2023-03-19T03:56:14.429Z,100.00
2023-03-19T03:57:12.331Z,100.00
2023-03-19T03:58:09.467Z,100.00
2023-03-19T03:59:06.278Z,100.00
2023-03-19T04:00:04.005Z,100.00
2023-03-19T04:01:07.400Z,100.00
2023-03-19T04:02:04.171Z,100.00
2023-03-19T04:03:01.228Z,100.00
2023-03-19T04:03:58.055Z,100.00
2023-03-19T04:04:56.197Z,100.00
2023-03-19T04:05:59.478Z,100.00
2023-03-19T04:06:56.619Z,100.00
2023-03-19T04:07:53.712Z,100.00
2023-03-19T04:08:51.091Z,100.00
2023-03-19T04:09:48.045Z,100.00
2023-03-19T04:10:51.504Z,100.00
2023-03-19T04:11:51.345Z,100.00
2023-03-19T04:12:55.530Z,100.00
2023-03-19T04:13:55.288Z,100.00
2023-03-19T04:14:52.172Z,100.00
2023-03-19T04:15:49.033Z,100.00
2023-03-19T04:16:45.888Z,100.00
2023-03-19T04:17:49.396Z,100.00
2023-03-19T04:18:46.265Z,100.00
2023-03-19T04:19:44.129Z,100.00
2023-03-19T04:20:41.461Z,100.00
2023-03-19T04:21:38.274Z,100.00
2023-03-19T04:22:41.497Z,100.00
2023-03-19T04:23:41.912Z,100.00
2023-03-19T04:24:45.467Z,100.00
2023-03-19T04:25:48.551Z,100.00
2023-03-19T04:26:53.381Z,100.00
2023-03-19T04:27:50.209Z,100.00
2023-03-19T04:28:47.145Z,100.00
2023-03-19T04:29:43.947Z,100.00
2023-03-19T04:30:47.504Z,100.00
2023-03-19T04:31:45.494Z,100.00
2023-03-19T04:32:50.556Z,100.00
2023-03-19T04:33:47.766Z,100.00
2023-03-19T04:34:44.581Z,100.00
2023-03-19T04:35:41.605Z,100.00
2023-03-19T04:36:38.936Z,100.00
2023-03-19T04:37:42.512Z,100.00
2023-03-19T04:38:39.327Z,100.00
2023-03-19T04:39:36.958Z,100.00
2023-03-19T04:40:40.503Z,100.00
2023-03-19T04:41:37.674Z,100.00
2023-03-19T04:42:34.535Z,100.00
2023-03-19T04:43:31.622Z,100.00
2023-03-19T04:44:28.575Z,100.00
2023-03-19T04:45:25.905Z,100.00
2023-03-19T04:46:29.508Z,100.00
2023-03-19T04:47:26.599Z,100.00
2023-03-19T04:48:23.983Z,100.00
2023-03-19T04:49:20.947Z,100.00
2023-03-19T04:50:18.153Z,100.00
2023-03-19T04:51:15.093Z,100.00
2023-03-19T04:52:18.490Z,100.00
2023-03-19T04:53:15.960Z,100.00
2023-03-19T04:54:12.814Z,100.00
2023-03-19T04:55:10.253Z,100.00
2023-03-19T04:56:08.036Z,100.00
2023-03-19T04:57:11.479Z,100.00
2023-03-19T04:58:09.278Z,100.00
2023-03-19T04:59:06.764Z,100.00
2023-03-19T05:00:10.488Z,100.00
2023-03-19T05:01:07.362Z,100.00
2023-03-19T05:02:04.491Z,100.00
2023-03-19T05:03:01.309Z,100.00
2023-03-19T05:04:04.621Z,100.00
2023-03-19T05:05:01.508Z,100.00
2023-03-19T05:05:58.326Z,100.00
2023-03-19T05:06:55.292Z,100.00
2023-03-19T05:07:52.491Z,100.00
2023-03-19T05:08:49.481Z,100.00
2023-03-19T05:09:54.550Z,100.00
2023-03-19T05:10:51.367Z,100.00
2023-03-19T05:11:54.539Z,100.00
2023-03-19T05:12:57.630Z,100.00
2023-03-19T05:13:54.489Z,100.00
2023-03-19T05:14:51.314Z,100.00
2023-03-19T05:15:48.548Z,100.00
2023-03-19T05:16:45.445Z,100.00
2023-03-19T05:17:43.046Z,100.00
2023-03-19T05:18:46.528Z,100.00
2023-03-19T05:19:43.656Z,100.00
2023-03-19T05:20:42.618Z,100.00
2023-03-19T05:21:47.541Z,100.00
2023-03-19T05:22:44.495Z,100.00
2023-03-19T05:23:41.429Z,100.00
2023-03-19T05:24:38.538Z,100.00
2023-03-19T05:25:35.516Z,100.00
2023-03-19T05:26:46.662Z,100.00
2023-03-19T05:27:56.700Z,100.00
2023-03-19T05:28:53.623Z,100.00
2023-03-19T05:29:55.819Z,100.00
2023-03-19T05:30:53.029Z,100.00
2023-03-19T05:32:13.775Z,100.00
2023-03-19T05:33:17.642Z,96.58
2023-03-19T05:34:17.416Z,94.18
2023-03-19T05:35:14.562Z,91.48
2023-03-19T05:36:12.518Z,89.18
2023-03-19T05:37:19.308Z,86.99
2023-03-19T05:38:18.822Z,84.98
2023-03-19T05:39:18.110Z,84.00
2023-03-19T05:40:18.805Z,84.26
2023-03-19T05:41:25.525Z,84.09
2023-03-19T05:42:22.412Z,82.80
2023-03-19T05:43:21.342Z,82.07
2023-03-19T05:44:18.865Z,81.72
2023-03-19T05:45:24.573Z,82.28
2023-03-19T05:46:23.888Z,81.93
2023-03-19T05:47:21.508Z,83.06
2023-03-19T05:48:21.298Z,84.03
2023-03-19T05:49:24.614Z,85.54
2023-03-19T05:50:21.987Z,84.25
2023-03-19T05:51:18.971Z,85.12
2023-03-19T05:52:18.499Z,84.37
2023-03-19T05:53:22.553Z,85.49
2023-03-19T05:54:19.810Z,86.55
2023-03-19T05:55:20.324Z,84.17
2023-03-19T05:56:17.333Z,85.47
2023-03-19T05:57:16.563Z,83.92
2023-03-19T05:58:21.358Z,83.38
2023-03-19T05:59:24.032Z,85.10
2023-03-19T06:00:23.827Z,82.96
2023-03-19T06:01:27.933Z,83.59
2023-03-19T06:02:24.978Z,82.50
2023-03-19T06:03:33.614Z,80.27
2023-03-19T06:04:30.475Z,80.18
2023-03-19T06:05:29.252Z,80.90
2023-03-19T06:06:27.112Z,80.83
2023-03-19T06:07:23.970Z,79.38
2023-03-19T06:08:21.616Z,78.75
2023-03-19T06:09:26.615Z,80.43
2023-03-19T06:10:23.490Z,80.96
2023-03-19T06:11:20.404Z,82.48
2023-03-19T06:12:22.369Z,81.11
2023-03-19T06:13:25.558Z,79.92
2023-03-19T06:14:28.563Z,80.40
2023-03-19T06:15:25.385Z,81.53
2023-03-19T06:16:22.253Z,81.28
2023-03-19T06:17:22.329Z,80.35
2023-03-19T06:18:30.690Z,82.10
2023-03-19T06:19:30.220Z,82.01
2023-03-19T06:20:33.768Z,82.24
2023-03-19T06:21:33.342Z,82.36
2023-03-19T06:22:30.141Z,82.90
2023-03-19T06:23:33.556Z,83.19
2023-03-19T06:24:32.720Z,83.28
2023-03-19T06:25:29.510Z,82.38
2023-03-19T06:26:33.647Z,80.60
2023-03-19T06:27:37.876Z,80.59
2023-03-19T06:28:34.603Z,81.81
2023-03-19T06:29:38.691Z,82.00
2023-03-19T06:30:36.222Z,81.15
2023-03-19T06:31:47.401Z,81.09
2023-03-19T06:32:44.371Z,81.54
2023-03-19T06:33:41.743Z,81.85
2023-03-19T06:34:45.672Z,81.56
2023-03-19T06:35:42.431Z,83.24
2023-03-19T06:36:39.202Z,84.49
2023-03-19T06:37:36.649Z,85.20
2023-03-19T06:38:39.653Z,86.86
2023-03-19T06:39:36.808Z,88.35
2023-03-19T06:40:36.799Z,88.84
2023-03-19T06:41:37.259Z,89.69
2023-03-19T06:42:37.400Z,89.19
2023-03-19T06:43:37.332Z,89.35
2023-03-19T06:44:40.646Z,90.50
2023-03-19T06:45:43.717Z,90.39
2023-03-19T06:46:43.521Z,91.23
2023-03-19T06:47:41.999Z,92.34
2023-03-19T06:48:39.383Z,92.77
2023-03-19T06:49:36.396Z,92.87
2023-03-19T06:50:39.649Z,92.58
2023-03-19T06:51:36.831Z,94.12
2023-03-19T06:52:33.646Z,94.94
2023-03-19T06:53:30.516Z,94.56
2023-03-19T06:54:33.654Z,95.01
2023-03-19T06:55:31.159Z,94.47
2023-03-19T06:56:29.433Z,93.60
2023-03-19T06:57:26.236Z,94.69
2023-03-19T06:58:29.623Z,95.53
2023-03-19T06:59:26.687Z,94.27
2023-03-19T07:00:30.689Z,91.43
2023-03-19T07:01:27.801Z,90.25
2023-03-19T07:02:24.779Z,88.61
2023-03-19T07:03:28.645Z,90.16
2023-03-19T07:04:25.550Z,89.70
2023-03-19T07:05:22.492Z,89.96
2023-03-19T07:06:19.361Z,91.22
2023-03-19T07:07:16.481Z,90.45
2023-03-19T07:08:13.267Z,90.18
2023-03-19T07:09:16.692Z,90.98
2023-03-19T07:10:13.864Z,88.83
2023-03-19T07:11:12.311Z,89.19
2023-03-19T07:12:10.560Z,90.83
2023-03-19T07:13:13.678Z,91.57
2023-03-19T07:14:17.683Z,91.07
2023-03-19T07:15:15.213Z,90.64
2023-03-19T07:16:12.166Z,90.47
2023-03-19T07:17:10.367Z,89.77
2023-03-19T07:18:07.340Z,90.21
2023-03-19T07:19:10.698Z,90.66
2023-03-19T07:20:08.318Z,91.04
2023-03-19T07:21:11.650Z,89.22
2023-03-19T07:22:08.534Z,89.04
2023-03-19T07:23:05.317Z,85.41
2023-03-19T07:24:02.143Z,82.70
2023-03-19T07:25:05.654Z,80.49
2023-03-19T07:26:08.689Z,82.45
2023-03-19T07:27:18.857Z,83.14
2023-03-19T07:28:15.910Z,81.88
2023-03-19T07:29:12.660Z,81.10
2023-03-19T07:30:16.698Z,79.03
2023-03-19T07:31:19.739Z,78.24
2023-03-19T07:32:16.587Z,79.17
2023-03-19T07:33:13.512Z,77.56
2023-03-19T07:34:10.511Z,77.68
2023-03-19T07:35:09.503Z,77.61
2023-03-19T07:36:13.727Z,77.62
2023-03-19T07:37:10.753Z,78.27
2023-03-19T07:38:07.454Z,76.50
2023-03-19T07:39:04.375Z,76.71
2023-03-19T07:40:01.204Z,76.80
2023-03-19T07:41:02.279Z,77.04
2023-03-19T07:42:07.117Z,75.96
2023-03-19T07:43:04.343Z,76.87
2023-03-19T07:44:03.960Z,77.39
2023-03-19T07:45:02.350Z,77.70
2023-03-19T07:46:06.851Z,77.64
2023-03-19T07:47:22.501Z,77.07
2023-03-19T07:48:25.065Z,76.06
2023-03-19T07:49:36.636Z,74.59
2023-03-19T07:50:34.388Z,74.83
2023-03-19T07:51:38.736Z,74.30
2023-03-19T07:52:41.773Z,72.96
2023-03-19T07:53:38.586Z,71.70
2023-03-19T07:54:35.819Z,72.50
2023-03-19T07:55:32.555Z,70.16
2023-03-19T07:56:29.491Z,69.25
2023-03-19T07:57:32.701Z,69.30
2023-03-19T07:58:29.623Z,69.35
2023-03-19T07:59:26.541Z,68.59
2023-03-19T08:00:23.514Z,68.13
2023-03-19T08:01:26.862Z,67.51
2023-03-19T08:02:23.875Z,67.38
2023-03-19T08:03:29.753Z,67.38
2023-03-19T08:04:27.266Z,65.35
2023-03-19T08:05:30.754Z,65.93
2023-03-19T08:06:28.011Z,64.23
2023-03-19T08:07:25.474Z,63.39
2023-03-19T08:08:22.666Z,62.23
2023-03-19T08:09:19.539Z,62.48
2023-03-19T08:10:22.805Z,62.75
2023-03-19T08:11:19.837Z,62.10
2023-03-19T08:12:16.765Z,62.41
2023-03-19T08:13:20.794Z,62.64
2023-03-19T08:14:22.421Z,61.60
2023-03-19T08:15:25.748Z,62.20
2023-03-19T08:16:22.727Z,61.17
2023-03-19T08:17:19.774Z,61.35
2023-03-19T08:18:23.811Z,61.19
2023-03-19T08:19:20.601Z,61.59
2023-03-19T08:20:23.730Z,62.06
2023-03-19T08:21:21.028Z,61.16
2023-03-19T08:22:17.811Z,61.42
2023-03-19T08:23:15.837Z,61.13
2023-03-19T08:24:18.711Z,61.01
2023-03-19T08:25:15.769Z,60.52
2023-03-19T08:26:18.786Z,60.37
2023-03-19T08:27:22.200Z,59.56
2023-03-19T08:28:24.136Z,59.88
2023-03-19T08:29:21.078Z,59.45
2023-03-19T08:30:18.552Z,60.48
2023-03-19T08:31:23.740Z,59.52
2023-03-19T08:32:20.806Z,60.87
2023-03-19T08:33:17.572Z,60.62
2023-03-19T08:34:14.458Z,60.83
2023-03-19T08:35:13.378Z,60.23
2023-03-19T08:36:21.746Z,59.19
2023-03-19T08:37:19.367Z,58.24
2023-03-19T08:38:21.753Z,57.63
2023-03-19T08:39:25.713Z,57.29
2023-03-19T08:40:30.236Z,57.72
2023-03-19T08:41:27.329Z,57.78
2023-03-19T08:42:24.243Z,58.35
2023-03-19T08:43:21.080Z,58.18
2023-03-19T08:44:17.987Z,57.69
2023-03-19T08:45:16.612Z,57.81
2023-03-19T08:46:21.046Z,56.97
2023-03-19T08:47:18.102Z,57.52
2023-03-19T08:48:14.941Z,56.74
2023-03-19T08:49:11.883Z,55.86
2023-03-19T08:50:10.268Z,55.44
2023-03-19T08:51:13.750Z,54.35
2023-03-19T08:52:10.731Z,54.67
2023-03-19T08:53:07.663Z,54.87
2023-03-19T08:54:10.802Z,54.52
2023-03-19T08:55:09.405Z,54.64
2023-03-19T08:56:43.073Z,54.33
2023-03-19T08:57:39.933Z,53.65
2023-03-19T08:58:36.795Z,53.53
2023-03-19T08:59:39.809Z,54.36
2023-03-19T09:00:36.804Z,54.56
2023-03-19T09:01:33.760Z,53.50
2023-03-19T09:02:30.937Z,53.37
2023-03-19T09:03:27.947Z,53.27
2023-03-19T09:04:42.867Z,53.02
2023-03-19T09:05:39.746Z,52.99
2023-03-19T09:06:43.558Z,52.53
2023-03-19T09:07:40.720Z,52.73
2023-03-19T09:08:38.466Z,52.34
2023-03-19T09:09:35.532Z,52.93
2023-03-19T09:10:33.273Z,52.93
2023-03-19T09:11:30.500Z,52.38
2023-03-19T09:12:33.852Z,52.37
2023-03-19T09:13:30.693Z,51.90
2023-03-19T09:14:27.911Z,50.96
2023-03-19T09:15:25.056Z,51.33
2023-03-19T09:16:22.057Z,49.77
2023-03-19T09:17:25.805Z,50.07
2023-03-19T09:18:27.331Z,49.52
2023-03-19T09:19:24.160Z,49.09
2023-03-19T09:20:21.175Z,49.38
2023-03-19T09:21:24.872Z,49.11
2023-03-19T09:22:21.793Z,48.87
2023-03-19T09:23:18.890Z,47.75
2023-03-19T09:24:16.116Z,47.63
2023-03-19T09:25:13.005Z,47.08
2023-03-19T09:26:09.885Z,47.76
2023-03-19T09:27:19.812Z,47.83
2023-03-19T09:28:23.569Z,46.69
2023-03-19T09:29:20.721Z,47.18
2023-03-19T09:30:17.576Z,46.85
2023-03-19T09:31:20.909Z,47.25
2023-03-19T09:32:27.918Z,48.05
2023-03-19T09:33:24.772Z,47.51
2023-03-19T09:34:21.720Z,47.22
2023-03-19T09:35:21.460Z,46.94
2023-03-19T09:36:21.002Z,46.97
2023-03-19T09:37:20.411Z,47.49
2023-03-19T09:38:23.888Z,46.97
2023-03-19T09:39:25.859Z,47.80
2023-03-19T09:40:34.351Z,47.32
2023-03-19T09:41:31.763Z,46.91
2023-03-19T09:42:56.857Z,47.04
2023-03-19T09:44:00.059Z,47.18
2023-03-19T09:44:57.022Z,46.71
2023-03-19T09:45:54.525Z,46.16
2023-03-19T09:46:59.804Z,46.37
2023-03-19T09:48:15.250Z,46.18
2023-03-19T09:49:30.027Z,45.63
2023-03-19T09:50:32.433Z,46.28
2023-03-19T09:51:45.010Z,46.83
2023-03-19T09:52:55.946Z,45.90
2023-03-19T09:54:15.667Z,44.92
2023-03-19T09:55:32.954Z,44.23
2023-03-19T09:56:33.100Z,44.03
2023-03-19T09:57:30.113Z,44.29
2023-03-19T09:58:34.134Z,43.92
2023-03-19T09:59:37.912Z,43.79
2023-03-19T10:00:38.131Z,43.65
2023-03-19T10:01:39.917Z,42.82
2023-03-19T10:02:43.731Z,42.81
2023-03-19T10:04:26.504Z,43.07
2023-03-19T10:05:55.885Z,42.94
2023-03-19T10:07:24.086Z,42.57
2023-03-19T10:08:42.477Z,43.42
2023-03-19T10:09:54.726Z,42.45
2023-03-19T10:11:19.274Z,42.41
2023-03-19T10:12:45.652Z,42.84
2023-03-19T10:14:19.229Z,42.83
2023-03-19T10:15:26.023Z,43.65
2023-03-19T10:16:27.581Z,43.09
2023-03-19T10:17:59.992Z,42.85
2023-03-19T10:19:06.439Z,43.22
2023-03-19T10:20:15.989Z,41.99
2023-03-19T10:21:33.954Z,41.66
2023-03-19T10:22:40.205Z,41.86
2023-03-19T10:24:03.516Z,42.75
2023-03-19T10:25:09.898Z,41.40
2023-03-19T10:26:18.065Z,42.44
2023-03-19T10:27:26.138Z,42.18
2023-03-19T10:28:23.203Z,41.88
2023-03-19T10:29:24.319Z,42.58
2023-03-19T10:30:27.897Z,42.33
2023-03-19T10:31:33.595Z,42.72
2023-03-19T10:32:55.310Z,43.22
2023-03-19T10:34:38.060Z,43.01
2023-03-19T10:35:51.039Z,42.37
2023-03-19T10:36:47.946Z,42.75
2023-03-19T10:37:44.913Z,43.11
2023-03-19T10:38:43.589Z,43.33
2023-03-19T10:39:43.437Z,42.91
2023-03-19T10:41:00.040Z,43.24
2023-03-19T10:42:48.466Z,43.71
2023-03-19T10:43:54.592Z,42.66
2023-03-19T10:44:54.206Z,41.98
2023-03-19T10:45:58.110Z,42.47
2023-03-19T10:46:59.043Z,42.97
2023-03-19T10:47:58.045Z,42.79
2023-03-19T10:48:54.859Z,42.86
2023-03-19T10:49:51.880Z,42.63
2023-03-19T10:51:07.947Z,42.08
2023-03-19T10:52:13.970Z,41.29
2023-03-19T10:53:13.531Z,41.72
2023-03-19T10:54:21.887Z,41.44
2023-03-19T10:55:29.908Z,41.43
2023-03-19T10:56:36.994Z,41.37
2023-03-19T10:57:34.954Z,40.84
2023-03-19T10:58:43.338Z,41.13
2023-03-19T10:59:40.392Z,41.20
2023-03-19T11:00:40.252Z,41.10
2023-03-19T11:01:50.007Z,41.32
2023-03-19T11:02:50.791Z,41.33
2023-03-19T11:04:02.423Z,40.88
2023-03-19T11:05:26.909Z,41.49
2023-03-19T11:06:36.797Z,40.78
2023-03-19T11:07:41.981Z,40.58
2023-03-19T11:08:49.634Z,40.64
2023-03-19T11:09:55.362Z,40.80
2023-03-19T11:10:52.335Z,40.64
2023-03-19T11:12:02.530Z,40.59
2023-03-19T11:13:23.643Z,40.32
2023-03-19T11:14:36.664Z,40.05
2023-03-19T11:15:39.201Z,40.12
2023-03-19T11:17:04.947Z,40.31
2023-03-19T11:18:09.216Z,41.03
2023-03-19T11:19:24.212Z,40.47
2023-03-19T11:20:36.885Z,40.50
2023-03-19T11:21:43.046Z,40.75
2023-03-19T11:22:40.301Z,40.15
2023-03-19T11:23:49.046Z,40.39
2023-03-19T11:25:18.959Z,40.66
2023-03-19T11:26:21.691Z,40.90
2023-03-19T11:28:03.482Z,40.71
2023-03-19T11:29:12.144Z,40.74
2023-03-19T11:30:20.566Z,40.51
2023-03-19T11:32:20.487Z,40.30
2023-03-19T11:33:31.053Z,40.41
2023-03-19T11:35:03.020Z,41.02
2023-03-19T11:36:13.183Z,40.75
2023-03-19T11:37:33.936Z,40.95
2023-03-19T11:39:18.797Z,40.48
2023-03-19T11:40:24.655Z,40.36
2023-03-19T11:41:52.968Z,40.57
2023-03-19T11:43:15.039Z,40.28
2023-03-19T11:44:36.591Z,40.99
2023-03-19T11:46:09.155Z,39.86
2023-03-19T11:47:29.227Z,40.15
2023-03-19T11:48:56.109Z,39.76
2023-03-19T11:50:18.483Z,40.05
2023-03-19T11:51:22.715Z,39.92
2023-03-19T11:52:43.501Z,39.78
2023-03-19T11:54:06.243Z,40.10
2023-03-19T11:55:42.824Z,39.63
2023-03-19T11:56:55.678Z,40.08
2023-03-19T11:58:27.298Z,39.81
2023-03-19T11:59:36.040Z,39.97
2023-03-19T12:00:41.840Z,39.56
2023-03-19T12:02:16.230Z,39.79
2023-03-19T12:03:28.137Z,39.44
2023-03-19T12:04:32.106Z,39.95
2023-03-19T12:05:56.826Z,40.05
2023-03-19T12:07:14.196Z,39.54
2023-03-19T12:08:29.580Z,39.79
2023-03-19T12:09:51.032Z,40.26
2023-03-19T12:11:08.261Z,40.76
2023-03-19T12:12:26.636Z,40.70
2023-03-19T12:13:27.104Z,40.57
2023-03-19T12:14:57.037Z,39.65
2023-03-19T12:16:05.288Z,39.75
2023-03-19T12:17:31.641Z,39.42
2023-03-19T12:18:52.387Z,40.02
2023-03-19T12:20:29.072Z,39.81
2023-03-19T12:21:58.789Z,39.98
2023-03-19T12:23:04.738Z,40.24
2023-03-19T12:24:12.183Z,40.38
2023-03-19T12:25:25.138Z,40.26
2023-03-19T12:26:56.171Z,40.07
2023-03-19T12:28:06.236Z,40.61
2023-03-19T12:29:18.024Z,39.95
2023-03-19T12:30:39.066Z,40.47
2023-03-19T12:32:07.121Z,39.85
2023-03-19T12:33:16.222Z,40.17
2023-03-19T12:34:31.237Z,39.94
2023-03-19T12:35:35.415Z,40.08
2023-03-19T12:36:49.085Z,39.56
2023-03-19T12:38:48.521Z,39.18
2023-03-19T12:40:14.605Z,39.69
2023-03-19T12:41:28.003Z,39.13
2023-03-19T12:42:44.321Z,38.87
2023-03-19T12:43:53.537Z,39.48
2023-03-19T12:44:58.458Z,39.04
2023-03-19T12:46:13.259Z,39.31
2023-03-19T12:47:22.430Z,39.40
2023-03-19T12:48:42.310Z,39.67
2023-03-19T12:50:04.726Z,39.43
2023-03-19T12:51:10.431Z,38.80
2023-03-19T12:52:35.384Z,39.11
2023-03-19T12:54:26.051Z,38.78
2023-03-19T12:55:45.592Z,38.47
2023-03-19T12:56:44.888Z,38.87
2023-03-19T12:57:55.337Z,39.55
2023-03-19T12:59:29.999Z,39.07
2023-03-19T13:00:38.922Z,39.64
2023-03-19T13:01:52.310Z,39.19
2023-03-19T13:03:07.167Z,39.33
2023-03-19T13:04:39.477Z,39.15
2023-03-19T13:05:44.857Z,39.00
2023-03-19T13:07:15.227Z,38.64
2023-03-19T13:08:37.097Z,38.89
2023-03-19T13:09:39.255Z,39.14
2023-03-19T13:10:36.497Z,38.99
2023-03-19T13:11:55.205Z,38.82
2023-03-19T13:12:54.368Z,38.01
2023-03-19T13:13:51.147Z,38.23
2023-03-19T13:15:06.701Z,38.56
2023-03-19T13:16:15.808Z,38.58
2023-03-19T13:17:34.122Z,38.34
2023-03-19T13:18:59.983Z,37.94
2023-03-19T13:20:01.543Z,37.70
2023-03-19T13:21:33.555Z,37.73
2023-03-19T13:22:44.176Z,37.78
2023-03-19T13:23:45.661Z,37.43
2023-03-19T13:24:49.827Z,38.00
2023-03-19T13:25:49.402Z,37.81
2023-03-19T13:27:10.256Z,37.84
2023-03-19T13:28:11.755Z,37.61
2023-03-19T13:29:36.539Z,37.92
2023-03-19T13:30:33.739Z,38.00